Time;durP1;ratioP1;P1;durP2;ratioP2;P2;SDS_P1;SDS_P2;PMS_P1;PMS_P2;Temp;Humidity;BMP_temperature;BMP_pressure;BME280_temperature;BME280_humidity;BME280_pressure;Samples;Min_cycle;Max_cycle;Signal;HPM_P1;HPM_P2
2023/06/15 00:01:48;;;;;;;4.03;2.30;;;;;;;-146.27;52.71;81146.97;5022181;28;20041;-71
2023/06/15 00:04:14;;;;;;;4.13;2.42;;;;;;;-146.27;53.31;81167.03;5027919;28;20029;-73
2023/06/15 00:06:40;;;;;;;6.70;2.20;;;;;;;-146.27;53.87;81167.03;5026731;28;20076;-73
2023/06/15 00:09:05;;;;;;;3.00;2.40;;;;;;;-146.27;53.38;81205.19;5026818;28;20033;-72
2023/06/15 00:11:30;;;;;;;6.18;2.05;;;;;;;-146.27;54.50;81219.25;5014245;28;20116;-73
2023/06/15 00:13:57;;;;;;;5.72;2.20;;;;;;;-146.27;53.48;81211.22;5025806;28;20481;-72
2023/06/15 00:16:22;;;;;;;3.17;2.40;;;;;;;-146.27;54.50;81233.31;5024834;28;20029;-72
2023/06/15 00:18:48;;;;;;;7.57;2.80;;;;;;;-146.27;53.29;81203.19;5022500;28;20033;-73
2023/06/15 00:21:15;;;;;;;6.70;2.22;;;;;;;-146.27;55.10;81231.31;5027300;28;20017;-73
2023/06/15 00:23:41;;;;;;;4.10;2.30;;;;;;;-146.27;53.23;81191.13;5028852;28;20147;-73
2023/06/15 00:26:07;;;;;;;5.03;2.10;;;;;;;-146.27;53.54;81213.22;5028671;28;20053;-72
2023/06/15 00:28:32;;;;;;;5.68;2.42;;;;;;;-146.27;53.94;81211.22;5027671;28;20128;-72
2023/06/15 00:30:57;;;;;;;2.70;2.05;;;;;;;-146.27;54.63;81219.25;5031239;28;20013;-72
2023/06/15 00:33:23;;;;;;;7.40;2.63;;;;;;;-146.27;54.41;81273.47;5025066;28;20025;-72
2023/06/15 00:35:49;;;;;;;9.52;2.95;;;;;;;-146.27;55.23;81207.19;5021577;28;20053;-72
2023/06/15 00:38:14;;;;;;;5.43;2.30;;;;;;;-146.27;54.88;81185.13;5023713;28;20108;-72
2023/06/15 00:40:40;;;;;;;4.43;2.78;;;;;;;-146.27;55.18;81237.31;5027323;28;20037;-72
2023/06/15 00:43:05;;;;;;;8.35;3.10;;;;;;;-146.27;57.24;81263.44;5026532;28;20057;-73
2023/06/15 00:45:30;;;;;;;9.63;3.13;;;;;;;-146.27;56.57;81239.34;5019966;28;20049;-72
2023/06/15 00:47:56;;;;;;;4.35;2.58;;;;;;;-146.27;57.02;81255.41;5028049;28;20252;-72
2023/06/15 00:50:21;;;;;;;5.20;2.80;;;;;;;-146.27;57.63;81231.31;5032492;28;20044;-73
2023/06/15 00:52:50;;;;;;;5.25;2.65;;;;;;;-146.27;57.33;81249.38;5029042;28;20454;-73
2023/06/15 00:55:17;;;;;;;9.35;2.75;;;;;;;-146.27;58.19;81215.22;5029169;28;20021;-73
2023/06/15 00:57:44;;;;;;;9.95;3.10;;;;;;;-146.27;57.73;81235.31;5030849;28;20377;-72
2023/06/15 01:00:15;;;;;;;5.93;3.22;;;;;;;-146.27;57.07;81219.25;5030304;28;20394;-72
2023/06/15 01:02:41;;;;;;;5.03;3.00;;;;;;;-146.27;58.06;81227.28;5031429;28;20415;-72
2023/06/15 01:05:12;;;;;;;5.65;3.13;;;;;;;-146.27;57.88;81259.41;5030303;28;20021;-73
2023/06/15 01:07:40;;;;;;;5.78;3.60;;;;;;;-146.27;58.64;81235.31;5031381;28;20473;-73
2023/06/15 01:10:09;;;;;;;4.28;3.00;;;;;;;-146.27;59.06;81249.38;5032127;28;20517;-73
2023/06/15 01:12:40;;;;;;;6.38;2.70;;;;;;;-146.27;58.55;81267.44;5030035;28;20053;-72
2023/06/15 01:15:09;;;;;;;6.05;3.08;;;;;;;-146.27;58.86;81257.41;5022282;28;20047;-72
2023/06/15 01:17:37;;;;;;;4.47;3.30;;;;;;;-146.27;59.84;81295.56;5020614;28;20041;-72
2023/06/15 01:20:05;;;;;;;4.82;3.00;;;;;;;-146.27;59.40;81279.50;5020582;28;20476;-72
2023/06/15 01:23:10;;;;;;;5.97;3.03;;;;;;;-146.27;59.29;81247.38;5024866;28;20036;-72
2023/06/15 01:25:44;;;;;;;4.55;3.20;;;;;;;-146.27;60.44;81235.31;5028827;28;20113;-73
2023/06/15 01:28:12;;;;;;;4.55;3.22;;;;;;;-146.27;59.94;81281.50;5028071;28;20108;-73
2023/06/15 01:30:43;;;;;;;5.43;3.13;;;;;;;-146.27;60.86;81297.56;5023695;28;20029;-72
2023/06/15 01:33:08;;;;;;;7.95;3.20;;;;;;;-146.27;60.10;81279.50;5028167;28;20079;-73
2023/06/15 01:35:34;;;;;;;5.00;2.92;;;;;;;-146.27;60.86;81315.66;5029394;28;20424;-73
2023/06/15 01:38:00;;;;;;;8.55;3.10;;;;;;;-146.27;60.81;81339.75;5029310;28;20025;-72
2023/06/15 01:40:26;;;;;;;4.35;3.33;;;;;;;-146.27;61.42;81315.66;5029059;28;20059;-73
2023/06/15 01:42:52;;;;;;;9.27;3.35;;;;;;;-146.27;62.23;81337.75;5027954;28;20171;-72
2023/06/15 01:45:19;;;;;;;6.15;3.42;;;;;;;-146.27;61.85;81293.56;5027841;28;20029;-72
2023/06/15 01:47:47;;;;;;;5.32;3.35;;;;;;;-146.27;62.16;81355.81;5028609;28;20381;-72
2023/06/15 01:50:13;;;;;;;4.72;3.53;;;;;;;-146.27;62.44;81335.72;5029899;28;20026;-72
2023/06/15 01:52:39;;;;;;;6.30;3.80;;;;;;;-146.27;62.15;81367.88;5026578;28;20083;-72
2023/06/15 01:55:04;;;;;;;11.05;4.07;;;;;;;-146.27;63.85;81345.78;5028411;28;20033;-68
2023/06/15 01:57:37;;;;;;;5.97;3.75;;;;;;;-146.27;62.71;81418.06;5027864;28;20048;-69
2023/06/15 02:00:08;;;;;;;8.43;3.33;;;;;;;-146.27;63.83;81375.91;5021773;28;20056;-69
2023/06/15 02:02:34;;;;;;;11.15;3.53;;;;;;;-146.27;63.43;81365.84;5029469;28;20033;-68
2023/06/15 02:05:00;;;;;;;8.00;4.32;;;;;;;-146.27;63.51;81363.84;5028655;28;20029;-69
2023/06/15 02:07:25;;;;;;;7.13;3.50;;;;;;;-146.27;64.34;81389.94;5030187;28;20493;-69
2023/06/15 02:09:52;;;;;;;9.52;3.80;;;;;;;-146.27;65.28;81363.84;5016211;28;20057;-69
2023/06/15 02:12:17;;;;;;;6.28;3.53;;;;;;;-146.27;65.31;81426.09;5023656;28;20499;-68
2023/06/15 02:14:42;;;;;;;7.13;3.67;;;;;;;-146.27;65.03;81377.91;5013775;28;20168;-68
2023/06/15 02:17:08;;;;;;;6.13;3.45;;;;;;;-146.27;64.95;81391.97;5028490;28;20091;-68
2023/06/15 02:19:33;;;;;;;5.68;3.08;;;;;;;-146.27;65.86;81436.16;5027593;28;20029;-68
2023/06/15 02:21:58;;;;;;;5.55;3.80;;;;;;;-146.27;66.50;81420.06;5030054;28;20030;-67
2023/06/15 02:24:24;;;;;;;7.13;3.83;;;;;;;-146.27;66.78;81492.38;5030965;28;20021;-68
2023/06/15 02:26:49;;;;;;;7.57;4.05;;;;;;;-146.27;67.30;81504.44;5029863;28;20092;-68
2023/06/15 02:29:14;;;;;;;6.35;3.53;;;;;;;-146.27;68.18;81544.59;5028153;28;20025;-68
2023/06/15 02:31:40;;;;;;;6.68;3.40;;;;;;;-146.27;68.34;81568.69;5025624;28;20037;-68
2023/06/15 02:34:06;;;;;;;7.40;3.78;;;;;;;-146.27;68.69;81592.78;5029759;28;20056;-68
2023/06/15 02:36:31;;;;;;;10.60;4.30;;;;;;;-146.27;69.17;81610.88;5028540;28;20036;-68
2023/06/15 02:38:59;;;;;;;9.15;3.92;;;;;;;-146.27;69.64;81628.94;5027947;28;20115;-69
2023/06/15 02:41:24;;;;;;;3.83;3.35;;;;;;;-146.27;70.07;81616.91;5029129;28;20115;-66
2023/06/15 02:43:50;;;;;;;6.43;3.80;;;;;;;-146.27;70.38;81636.97;5026222;28;20029;-67
2023/06/15 02:46:15;;;;;;;4.38;3.70;;;;;;;-146.27;70.60;81659.06;5027664;28;20077;-67
2023/06/15 02:48:41;;;;;;;6.57;4.18;;;;;;;-146.27;70.75;81630.97;5028448;28;20118;-68
2023/06/15 02:51:07;;;;;;;4.78;3.88;;;;;;;-146.27;71.26;81641.00;5029769;28;20033;-68
2023/06/15 02:53:32;;;;;;;5.40;4.00;;;;;;;-146.27;71.57;81657.06;5036919;28;20026;-68
2023/06/15 02:55:58;;;;;;;9.43;4.05;;;;;;;-146.27;72.01;81681.16;5029296;28;20022;-69
2023/06/15 02:58:26;;;;;;;6.35;4.35;;;;;;;-146.27;72.16;81685.19;5028660;28;20026;-68
2023/06/15 03:00:51;;;;;;;6.35;4.15;;;;;;;-146.27;72.41;81669.13;5026878;28;20048;-69
2023/06/15 03:03:22;;;;;;;4.47;3.85;;;;;;;-146.27;72.65;81636.97;5028457;28;20037;-68
2023/06/15 03:05:51;;;;;;;5.88;4.18;;;;;;;-146.27;73.25;81687.19;5010798;28;20480;-68
2023/06/15 03:08:18;;;;;;;8.18;4.93;;;;;;;-146.27;73.10;81713.31;5010449;28;20018;-69
2023/06/15 03:10:44;;;;;;;8.68;4.03;;;;;;;-146.27;73.11;81709.28;5035681;28;20516;-70
2023/06/15 03:13:10;;;;;;;8.95;4.30;;;;;;;-146.27;72.96;81711.28;5029641;28;20112;-69
2023/06/15 03:15:36;;;;;;;5.68;4.07;;;;;;;-146.27;73.07;81705.28;5030039;28;20477;-69
2023/06/15 03:18:03;;;;;;;5.70;4.45;;;;;;;-146.27;74.11;81727.38;5026382;28;20096;-69
2023/06/15 03:20:32;;;;;;;15.88;5.00;;;;;;;-146.27;73.37;81753.47;5027595;28;20121;-69
2023/06/15 03:22:58;;;;;;;6.25;4.38;;;;;;;-146.27;73.62;81777.56;5028095;28;20060;-69
2023/06/15 03:25:23;;;;;;;5.50;4.18;;;;;;;-146.27;73.77;81781.59;5028314;28;20111;-68
2023/06/15 03:27:49;;;;;;;12.63;4.85;;;;;;;-146.27;73.97;81805.69;5027777;28;20355;-69
2023/06/15 03:30:14;;;;;;;4.97;4.35;;;;;;;-146.27;74.24;81801.69;5027719;28;20103;-70
2023/06/15 03:32:40;;;;;;;10.88;4.38;;;;;;;-146.27;74.00;81831.81;5029899;28;20025;-68
2023/06/15 03:35:07;;;;;;;8.25;4.40;;;;;;;-146.27;74.66;81825.78;5028525;28;20453;-68
2023/06/15 03:37:32;;;;;;;8.07;3.80;;;;;;;-146.27;74.96;81849.88;5029954;28;20454;-68
2023/06/15 03:39:58;;;;;;;12.57;5.10;;;;;;;-146.27;75.23;81837.81;5029772;28;20025;-68
2023/06/15 03:42:23;;;;;;;11.75;4.63;;;;;;;-146.27;75.24;81857.91;5027569;28;20040;-67
2023/06/15 03:44:49;;;;;;;5.93;4.53;;;;;;;-146.27;76.03;81849.88;5028853;28;20600;-68
2023/06/15 03:47:14;;;;;;;10.25;4.85;;;;;;;-146.27;75.93;81833.81;5016895;28;20048;-67
2023/06/15 03:49:39;;;;;;;8.43;5.18;;;;;;;-146.27;76.38;81847.88;5029024;28;20108;-68
2023/06/15 03:52:05;;;;;;;7.32;5.00;;;;;;;-146.27;76.36;81813.72;5025467;28;20018;-69
2023/06/15 03:54:32;;;;;;;7.03;5.13;;;;;;;-146.27;76.88;81871.97;5029132;28;20068;-69
2023/06/15 03:56:57;;;;;;;8.90;5.05;;;;;;;-146.27;77.04;81865.94;5031412;28;20098;-69
2023/06/15 03:59:23;;;;;;;12.73;5.57;;;;;;;-146.27;77.07;81853.91;5026747;28;20116;-68
2023/06/15 04:01:49;;;;;;;6.38;4.80;;;;;;;-146.27;77.18;81855.91;5025361;28;20053;-69
2023/06/15 04:04:15;;;;;;;6.45;4.90;;;;;;;-146.27;77.43;81871.97;5031256;28;20120;-69
2023/06/15 04:06:45;;;;;;;9.15;5.55;;;;;;;-146.27;77.56;81841.84;5031530;28;20633;-69
2023/06/15 04:09:11;;;;;;;9.55;5.70;;;;;;;-146.27;77.65;81819.75;5031926;28;20033;-69
2023/06/15 04:11:37;;;;;;;11.60;6.00;;;;;;;-146.27;78.14;81851.88;5029214;28;20417;-70
2023/06/15 04:14:03;;;;;;;9.85;4.90;;;;;;;-146.27;77.89;81813.72;5020322;28;20025;-70
2023/06/15 04:16:28;;;;;;;16.08;7.47;;;;;;;-146.27;77.78;81829.78;5031047;28;20031;-68
2023/06/15 04:18:53;;;;;;;10.55;5.53;;;;;;;-146.27;78.26;81833.81;5031089;28;20037;-68
2023/06/15 04:21:19;;;;;;;9.48;5.30;;;;;;;-146.27;78.03;81801.69;5029711;28;20036;-68
2023/06/15 04:23:44;;;;;;;7.00;5.53;;;;;;;-146.27;77.64;81817.75;5030174;28;20029;-68
2023/06/15 04:26:10;;;;;;;8.35;5.70;;;;;;;-146.27;77.83;81745.44;5027493;28;20385;-68
2023/06/15 04:28:35;;;;;;;10.82;6.78;;;;;;;-146.27;76.85;81717.31;5030642;28;20033;-67
2023/06/15 04:31:10;;;;;;;12.55;5.72;;;;;;;-146.27;76.62;81751.47;5031124;28;20037;-67
2023/06/15 04:33:42;;;;;;;9.73;5.95;;;;;;;-146.27;76.59;81763.50;5030445;28;20033;-69
2023/06/15 04:36:07;;;;;;;10.18;4.95;;;;;;;-146.27;76.21;81715.31;5031841;28;20042;-69
2023/06/15 04:38:33;;;;;;;16.60;5.60;;;;;;;-146.27;75.87;81711.28;5030972;28;20074;-68
2023/06/15 04:40:59;;;;;;;7.05;4.82;;;;;;;-146.27;76.75;81721.34;5023688;28;20033;-70
2023/06/15 04:43:25;;;;;;;6.25;4.90;;;;;;;-146.27;76.26;81759.50;5029470;28;20024;-69
2023/06/15 04:45:50;;;;;;;10.95;5.43;;;;;;;-146.27;75.93;81661.09;5031533;28;20116;-69
2023/06/15 04:48:17;;;;;;;8.05;4.47;;;;;;;-146.27;75.74;81681.16;5031197;28;20385;-69
2023/06/15 04:50:47;;;;;;;9.77;5.18;;;;;;;-146.27;75.43;81645.00;5030205;28;20021;-69
2023/06/15 04:53:14;;;;;;;6.40;4.72;;;;;;;-146.27;75.13;81679.16;5029573;28;20029;-69
2023/06/15 04:55:40;;;;;;;5.75;4.43;;;;;;;-146.27;75.42;81636.97;5026847;28;20029;-69
2023/06/15 04:58:06;;;;;;;7.03;4.53;;;;;;;-146.27;75.45;81624.94;5024238;28;20071;-68
2023/06/15 05:00:31;;;;;;;12.15;5.40;;;;;;;-146.27;75.25;81610.88;5026041;28;20034;-72
2023/06/15 05:02:57;;;;;;;6.80;4.75;;;;;;;-146.27;75.98;81612.88;5021736;28;20035;-72
2023/06/15 05:05:22;;;;;;;5.40;4.72;;;;;;;-146.27;74.41;81588.78;5028448;28;20040;-72
2023/06/15 05:07:47;;;;;;;10.35;5.03;;;;;;;-146.27;74.24;81548.59;5026698;28;20350;-72
2023/06/15 05:10:13;;;;;;;12.60;4.88;;;;;;;-146.27;72.98;81532.53;5025929;28;20469;-72
2023/06/15 05:12:38;;;;;;;5.45;4.30;;;;;;;-146.27;73.27;81522.50;5031266;28;20026;-73
2023/06/15 05:15:04;;;;;;;7.68;4.57;;;;;;;-146.27;74.31;81544.59;5027605;28;20120;-72
2023/06/15 05:17:29;;;;;;;8.90;4.63;;;;;;;-146.27;73.88;81470.28;5031082;28;20033;-72
2023/06/15 05:19:55;;;;;;;8.00;4.28;;;;;;;-146.27;73.78;81464.25;5027968;28;20036;-72
2023/06/15 05:22:20;;;;;;;10.85;4.60;;;;;;;-146.27;73.75;81456.22;5028220;28;20035;-72
2023/06/15 05:24:45;;;;;;;9.77;5.20;;;;;;;-146.27;73.29;81484.34;5029258;28;20029;-72
2023/06/15 05:27:10;;;;;;;8.55;4.85;;;;;;;-146.27;72.71;81466.28;5020341;28;20496;-72
2023/06/15 05:29:36;;;;;;;8.02;5.15;;;;;;;-146.27;72.82;81400.00;5027497;28;20116;-73
2023/06/15 05:32:02;;;;;;;10.57;5.13;;;;;;;-146.27;73.05;81426.09;5028784;28;20113;-71
2023/06/15 05:34:27;;;;;;;8.40;4.70;;;;;;;-146.27;73.37;81420.06;5028030;28;20099;-71
2023/06/15 05:36:53;;;;;;;7.97;4.75;;;;;;;-146.27;73.45;81432.13;5030097;28;20022;-71
2023/06/15 05:39:18;;;;;;;4.88;4.38;;;;;;;-146.27;73.53;81418.06;5028893;28;20437;-72
2023/06/15 05:41:43;;;;;;;6.90;4.72;;;;;;;-146.27;73.77;81412.03;5028588;28;20021;-72
2023/06/15 05:44:09;;;;;;;7.45;4.78;;;;;;;-146.27;73.18;81379.91;5029798;28;20060;-71
2023/06/15 05:46:34;;;;;;;8.98;5.05;;;;;;;-146.27;73.38;81371.88;5023263;28;20048;-72
2023/06/15 05:48:59;;;;;;;13.00;5.35;;;;;;;-146.27;72.45;81347.78;5028910;28;20056;-71
2023/06/15 05:51:25;;;;;;;11.43;5.55;;;;;;;-146.27;72.90;81285.53;5027229;28;20101;-72
2023/06/15 05:53:50;;;;;;;8.70;5.00;;;;;;;-146.27;72.22;81343.75;5014479;28;20464;-72
2023/06/15 05:56:15;;;;;;;6.78;5.10;;;;;;;-146.27;73.28;81329.72;5020554;28;20049;-74
2023/06/15 05:58:41;;;;;;;8.60;4.95;;;;;;;-146.27;72.41;81269.47;5025018;28;20033;-74
2023/06/15 06:01:06;;;;;;;6.43;4.97;;;;;;;-146.27;72.57;81277.50;5030994;28;20596;-73
2023/06/15 06:03:31;;;;;;;8.45;5.10;;;;;;;-146.27;72.71;81239.34;5031630;28;20079;-72
2023/06/15 06:05:57;;;;;;;8.43;5.70;;;;;;;-146.27;71.94;81239.34;5026995;28;20466;-72
2023/06/15 06:08:23;;;;;;;9.60;4.70;;;;;;;-146.27;71.62;81223.25;5030774;28;20653;-71
2023/06/15 06:10:49;;;;;;;8.45;5.10;;;;;;;-146.27;71.91;81179.09;5026841;28;20050;-72
2023/06/15 06:13:14;;;;;;;12.02;4.97;;;;;;;-146.27;71.86;81136.91;5028413;28;20087;-72
2023/06/15 06:15:40;;;;;;;8.50;5.15;;;;;;;-146.27;71.29;81144.94;5029224;28;20028;-73
2023/06/15 06:18:05;;;;;;;11.52;5.53;;;;;;;-146.27;70.87;81136.91;5028786;28;20116;-73
2023/06/15 06:20:35;;;;;;;10.90;4.90;;;;;;;-146.27;71.27;81134.91;5028685;28;20072;-72
2023/06/15 06:23:03;;;;;;;9.50;4.40;;;;;;;-146.27;70.01;81128.88;5027135;28;20037;-73
2023/06/15 06:25:28;;;;;;;7.18;4.18;;;;;;;-146.27;68.21;81032.50;5028862;28;20385;-72
2023/06/15 06:27:53;;;;;;;5.30;3.80;;;;;;;-146.27;68.14;81046.53;5019058;28;20040;-73
2023/06/15 06:30:19;;;;;;;7.22;4.32;;;;;;;-146.27;68.20;81038.50;5024936;28;20104;-74
2023/06/15 06:32:44;;;;;;;8.65;4.50;;;;;;;-146.27;67.31;81038.50;5023078;28;20108;-71
2023/06/15 06:35:10;;;;;;;6.93;4.60;;;;;;;-146.27;66.79;80998.34;5016834;28;20017;-72
2023/06/15 06:37:35;;;;;;;10.80;4.05;;;;;;;-146.27;66.02;81000.34;5027846;28;20052;-73
2023/06/15 06:40:00;;;;;;;8.95;4.60;;;;;;;-146.27;66.50;80948.16;5012620;28;20037;-70
2023/06/15 06:42:25;;;;;;;7.70;4.18;;;;;;;-146.27;64.90;80946.13;5013090;28;20121;-71
2023/06/15 06:44:51;;;;;;;8.30;4.43;;;;;;;-146.27;63.79;80926.06;5027926;28;20037;-71
2023/06/15 06:47:16;;;;;;;11.25;4.72;;;;;;;-146.27;63.87;80908.00;5026138;28;20554;-73
2023/06/15 06:49:42;;;;;;;7.78;3.95;;;;;;;-146.27;65.39;80845.75;5028771;28;20060;-73
2023/06/15 06:52:07;;;;;;;13.65;4.70;;;;;;;-146.27;64.06;80851.75;5029843;28;20052;-73
2023/06/15 06:54:34;;;;;;;11.05;3.88;;;;;;;-146.27;65.28;80843.72;5029717;28;20029;-74
2023/06/15 06:57:00;;;;;;;5.35;4.05;;;;;;;-146.27;63.49;80815.63;5029693;28;20037;-73
2023/06/15 06:59:26;;;;;;;6.43;4.40;;;;;;;-146.27;63.85;80833.69;5026826;28;20051;-73
2023/06/15 07:01:51;;;;;;;12.57;4.32;;;;;;;-146.27;63.22;80749.34;5021071;28;20025;-73
2023/06/15 07:04:16;;;;;;;8.85;4.78;;;;;;;-146.27;63.53;80755.38;5028942;28;20043;-73
2023/06/15 07:06:42;;;;;;;6.60;4.10;;;;;;;-146.27;63.37;80771.44;5030567;28;20060;-73
2023/06/15 07:09:07;;;;;;;10.55;4.63;;;;;;;-146.27;63.07;80757.38;5030511;28;20025;-73
2023/06/15 07:11:32;;;;;;;8.13;3.95;;;;;;;-146.27;61.98;80781.47;5029138;28;20056;-73
2023/06/15 07:13:58;;;;;;;16.13;4.82;;;;;;;-146.27;60.76;80733.28;5030433;28;20028;-74
2023/06/15 07:16:23;;;;;;;7.05;5.22;;;;;;;-146.27;60.24;80667.03;5021168;28;20021;-72
2023/06/15 07:18:49;;;;;;;11.55;4.28;;;;;;;-146.27;59.63;80657.00;5030701;28;20100;-74
2023/06/15 07:21:14;;;;;;;7.95;4.68;;;;;;;-146.27;59.64;80642.94;5029410;28;20461;-72
2023/06/15 07:23:40;;;;;;;8.18;4.50;;;;;;;-146.27;58.76;80618.84;5027435;28;20034;-72
2023/06/15 07:26:05;;;;;;;8.07;4.25;;;;;;;-146.27;59.98;80552.56;5022011;28;20084;-73
2023/06/15 07:28:30;;;;;;;13.85;4.55;;;;;;;-146.27;61.57;80556.59;5011005;28;20034;-72
2023/06/15 07:30:56;;;;;;;8.73;4.35;;;;;;;-146.27;60.99;80508.41;5014446;28;20022;-74
2023/06/15 07:33:21;;;;;;;9.20;4.05;;;;;;;-146.27;58.67;80492.34;5030576;28;20053;-73
2023/06/15 07:35:49;;;;;;;8.75;4.20;;;;;;;-146.27;56.99;80496.34;5028527;28;20037;-72
2023/06/15 07:38:14;;;;;;;5.07;3.65;;;;;;;-146.27;59.58;80486.31;5031622;28;20025;-72
2023/06/15 07:40:40;;;;;;;7.35;4.43;;;;;;;-146.27;57.27;80436.13;5036255;28;20148;-73
2023/06/15 07:43:05;;;;;;;7.75;3.65;;;;;;;-146.27;56.66;80428.09;5039756;28;20060;-73
2023/06/15 07:45:31;;;;;;;11.25;4.30;;;;;;;-146.27;57.83;80353.81;5035174;28;20057;-73
2023/06/15 07:47:56;;;;;;;7.10;3.97;;;;;;;-146.27;57.05;80331.72;5030100;28;20030;-73
2023/06/15 07:50:21;;;;;;;8.77;4.07;;;;;;;-146.27;54.74;80289.56;5029357;28;20021;-73
2023/06/15 07:52:48;;;;;;;11.73;4.60;;;;;;;-146.27;55.28;80309.63;5031609;28;20021;-73
2023/06/15 07:55:14;;;;;;;7.20;3.65;;;;;;;-146.27;53.88;80295.56;5033968;28;20029;-73
2023/06/15 07:57:39;;;;;;;10.80;4.57;;;;;;;-146.27;54.22;80237.34;5030397;28;20551;-74
2023/06/15 08:00:06;;;;;;;5.72;3.60;;;;;;;-146.27;52.98;80203.22;5033369;28;20021;-73
2023/06/15 08:02:31;;;;;;;9.82;4.15;;;;;;;-146.27;53.32;80159.06;5028241;28;20364;-73
2023/06/15 08:04:57;;;;;;;6.93;3.88;;;;;;;-146.27;53.49;80155.03;5032404;28;20026;-74
2023/06/15 08:07:22;;;;;;;6.50;3.20;;;;;;;-146.27;52.20;80143.00;5023471;28;20029;-73
2023/06/15 08:09:48;;;;;;;5.97;2.97;;;;;;;-146.27;49.86;80098.81;5027463;28;20049;-73
2023/06/15 08:12:13;;;;;;;9.48;3.30;;;;;;;-146.27;48.73;80032.56;5029862;28;20037;-72
2023/06/15 08:14:39;;;;;;;3.78;2.63;;;;;;;-146.27;48.66;80022.53;5029347;28;20029;-73
2023/06/15 08:17:05;;;;;;;10.73;4.15;;;;;;;-146.27;45.63;79966.31;5032100;28;20029;-74
2023/06/15 08:19:30;;;;;;;5.45;2.85;;;;;;;-146.27;44.28;79970.34;5032101;28;20140;-72
2023/06/15 08:21:55;;;;;;;8.02;3.63;;;;;;;-146.27;45.06;79922.16;5032919;28;20025;-73
2023/06/15 08:24:21;;;;;;;9.43;3.15;;;;;;;-146.27;46.47;79910.09;5033357;28;20033;-72
2023/06/15 08:26:48;;;;;;;8.00;3.25;;;;;;;-146.27;46.30;79938.22;5029191;28;20029;-73
2023/06/15 08:29:14;;;;;;;7.68;3.20;;;;;;;-146.27;45.48;79898.06;5029792;28;20029;-72
2023/06/15 08:31:40;;;;;;;9.10;3.63;;;;;;;-146.27;44.30;79829.81;5031453;28;20452;-72
2023/06/15 08:34:06;;;;;;;6.75;3.15;;;;;;;-146.27;43.29;79825.78;5031614;28;20021;-72
2023/06/15 08:36:31;;;;;;;12.02;3.72;;;;;;;-146.27;43.80;79787.66;5030892;28;20044;-72
2023/06/15 08:38:57;;;;;;;4.68;3.70;;;;;;;-146.27;43.66;79713.38;5031668;28;20040;-73
2023/06/15 08:41:25;;;;;;;7.80;2.72;;;;;;;-146.27;41.75;79673.22;5030266;28;20096;-74
2023/06/15 08:43:53;;;;;;;4.93;2.67;;;;;;;-146.27;40.79;79611.00;5024227;28;20030;-74
2023/06/15 08:46:18;;;;;;;13.98;3.10;;;;;;;-146.27;41.47;79596.94;5027350;28;20033;-72
2023/06/15 08:48:45;;;;;;;6.38;3.00;;;;;;;-146.27;40.59;79556.78;5026317;28;20409;-73
2023/06/15 08:51:12;;;;;;;6.07;2.70;;;;;;;-146.27;40.66;79512.63;5030388;28;20481;-74
2023/06/15 08:53:40;;;;;;;10.13;3.00;;;;;;;-146.27;40.17;79494.56;5023818;28;20033;-73
2023/06/15 08:56:10;;;;;;;11.20;2.60;;;;;;;-146.27;38.83;79434.34;5014302;28;20040;-72
2023/06/15 08:58:36;;;;;;;7.57;3.58;;;;;;;-146.27;39.24;79424.31;5027733;28;20021;-72
2023/06/15 09:01:02;;;;;;;7.25;3.38;;;;;;;-146.27;39.15;79396.19;5016583;28;20490;-71
2023/06/15 09:03:28;;;;;;;9.20;2.88;;;;;;;-146.27;38.98;79386.16;5013473;28;20021;-72
2023/06/15 09:05:54;;;;;;;8.05;2.55;;;;;;;-146.27;40.41;79348.03;5026609;28;20036;-72
2023/06/15 09:08:20;;;;;;;4.65;2.83;;;;;;;-146.27;40.28;79295.84;5021078;28;20034;-72
2023/06/15 09:10:45;;;;;;;8.95;2.80;;;;;;;-146.27;39.59;79229.59;5029962;28;20099;-74
2023/06/15 09:13:18;;;;;;;5.15;2.90;;;;;;;-146.27;38.17;79187.44;5018008;28;20571;-71
2023/06/15 09:15:50;;;;;;;6.32;2.63;;;;;;;-146.27;38.06;79199.50;5026033;28;20037;-73
2023/06/15 09:18:16;;;;;;;6.38;2.70;;;;;;;-146.27;38.26;79073.03;5032360;28;20037;-72
2023/06/15 09:20:42;;;;;;;5.78;2.83;;;;;;;-146.27;37.47;79050.97;5028094;28;20374;-74
2023/06/15 09:23:12;;;;;;;8.73;2.67;;;;;;;-146.27;36.62;79006.81;5031137;28;20028;-72
2023/06/15 09:25:38;;;;;;;7.32;2.70;;;;;;;-146.27;37.33;78964.66;5026465;28;20029;-73
2023/06/15 09:28:05;;;;;;;5.10;2.78;;;;;;;-146.27;36.64;78950.59;5025214;28;20045;-74
2023/06/15 09:30:39;;;;;;;6.95;2.63;;;;;;;-146.27;36.24;78926.53;5028887;28;20449;-73
2023/06/15 09:33:15;;;;;;;8.93;3.50;;;;;;;-146.27;36.94;78898.41;5028449;28;20354;-74
2023/06/15 09:35:57;;;;;;;10.30;3.03;;;;;;;-146.27;37.08;78822.16;5041348;28;20108;-74
2023/06/15 09:38:27;;;;;;;4.40;2.85;;;;;;;-146.27;36.26;78802.09;5019286;28;20029;-74
2023/06/15 09:40:54;;;;;;;6.63;3.03;;;;;;;-146.27;35.50;78786.03;5026270;28;20044;-74
2023/06/15 09:43:22;;;;;;;7.60;2.92;;;;;;;-146.27;36.08;78822.16;5029491;28;20025;-74
2023/06/15 09:45:51;;;;;;;9.15;2.88;;;;;;;-146.27;35.64;78796.06;5046838;28;20021;-74
2023/06/15 09:48:17;;;;;;;4.72;2.90;;;;;;;-146.27;35.53;78737.84;5033511;28;20358;-73
2023/06/15 09:50:42;;;;;;;8.40;3.03;;;;;;;-146.27;34.84;78673.63;5038805;28;20078;-74
2023/06/15 09:53:12;;;;;;;5.78;2.90;;;;;;;-146.27;34.74;78673.63;5042360;28;20112;-73
2023/06/15 09:55:43;;;;;;;5.78;2.50;;;;;;;-146.27;34.07;78541.19;5035085;28;20025;-74
2023/06/15 09:58:12;;;;;;;9.55;3.20;;;;;;;-146.27;34.71;78513.09;5021552;28;20551;-73
2023/06/15 10:00:38;;;;;;;6.68;2.47;;;;;;;-146.27;35.64;78424.78;5043446;28;20041;-73
2023/06/15 10:03:03;;;;;;;8.13;3.25;;;;;;;-146.27;35.50;78346.50;5040480;28;20029;-73
2023/06/15 10:05:34;;;;;;;8.85;2.90;;;;;;;-146.27;34.64;78232.13;5040694;28;20024;-73
2023/06/15 10:08:02;;;;;;;6.72;2.80;;;;;;;-146.27;34.53;78206.03;5031805;28;20028;-74
2023/06/15 10:10:30;;;;;;;6.22;2.70;;;;;;;-146.27;34.16;78139.81;5043564;28;20037;-74
2023/06/15 10:13:00;;;;;;;4.93;2.75;;;;;;;-146.27;33.12;78127.78;5032704;28;20055;-74
2023/06/15 10:15:26;;;;;;;3.60;2.50;;;;;;;-146.27;33.37;77971.25;5035337;28;20047;-73
2023/06/15 10:17:53;;;;;;;5.70;2.90;;;;;;;-146.27;33.04;77927.13;5033607;28;20083;-74
2023/06/15 10:20:23;;;;;;;7.90;2.70;;;;;;;-146.27;33.40;77963.25;5045207;28;20028;-75
2023/06/15 10:23:00;;;;;;;7.90;2.78;;;;;;;-146.27;33.17;77951.19;5030418;28;20045;-74
2023/06/15 10:25:27;;;;;;;9.13;2.60;;;;;;;-146.27;32.63;77895.00;5027739;28;20021;-74
2023/06/15 10:27:54;;;;;;;8.48;3.10;;;;;;;-146.27;32.74;77939.16;5047164;28;20025;-74
2023/06/15 10:30:38;;;;;;;6.20;3.25;;;;;;;-146.27;32.76;77915.09;5035646;28;20044;-74
2023/06/15 10:33:24;;;;;;;5.85;2.45;;;;;;;-146.27;33.75;78051.53;5046185;28;20507;-74
2023/06/15 10:36:11;;;;;;;4.55;2.53;;;;;;;-146.27;32.95;78204.03;5026165;28;20057;-74
2023/06/15 10:38:49;;;;;;;11.45;3.40;;;;;;;-146.27;33.58;78348.53;5030242;28;20044;-74
2023/06/15 10:41:15;;;;;;;7.32;2.55;;;;;;;-146.27;33.75;78400.69;5020286;28;20025;-74
2023/06/15 10:43:56;;;;;;;6.57;2.78;;;;;;;-146.27;34.77;78420.75;5023862;28;20025;-74
2023/06/15 10:46:29;;;;;;;6.18;3.17;;;;;;;-146.27;34.88;78408.72;5018390;28;20040;-73
2023/06/15 10:48:55;;;;;;;7.05;2.92;;;;;;;-146.27;34.64;78484.97;5027361;28;20485;-74
2023/06/15 10:51:25;;;;;;;7.88;3.00;;;;;;;-146.27;35.36;78316.41;5028314;28;20101;-76
2023/06/15 10:53:50;;;;;;;5.80;2.85;;;;;;;-146.27;34.55;78238.16;5028702;28;20475;-74
2023/06/15 10:56:28;;;;;;;5.50;3.10;;;;;;;-146.27;33.32;78185.97;5026198;28;20096;-75
2023/06/15 10:58:57;;;;;;;5.30;2.65;;;;;;;-146.27;34.68;78236.16;5022750;28;20029;-74
2023/06/15 11:01:33;;;;;;;3.20;2.65;;;;;;;-146.27;34.29;78268.25;5030585;28;20028;-75
2023/06/15 11:04:00;;;;;;;4.75;2.22;;;;;;;-146.27;32.90;78338.50;5038855;28;20057;-74
2023/06/15 11:06:35;;;;;;;5.45;2.90;;;;;;;-146.27;33.71;78354.53;5030091;28;20028;-74
2023/06/15 11:09:24;;;;;;;6.97;3.13;;;;;;;-146.27;34.30;78440.84;5024068;28;20030;-74
2023/06/15 11:11:50;;;;;;;6.57;2.47;;;;;;;-146.27;34.42;78410.72;5028674;28;20115;-75
2023/06/15 11:14:18;;;;;;;9.35;2.53;;;;;;;-146.27;33.90;78376.63;5032586;28;20061;-74
2023/06/15 11:16:43;;;;;;;5.90;2.63;;;;;;;-146.27;33.90;78196.00;5031822;28;20041;-74